Aviation Digital Data Service (ADDS)

Output produced by METARs form (0659 UTC 03 September 2014)
found at http://aviationweather.gov/adds/metars/
 
KDAG 030650Z AUTO 27014KT 10SM CLR 28/06 A2978 RMK AO2 SLP052 T02830061 TSNO
KDAG 030520Z 0306/0406 27010KT P6SM SKC 
     FM031900 31006KT P6SM SKC 
     FM040100 24014KT P6SM SKC
       
KEDW 030658Z AUTO 23013KT 10SM CLR 26/01 A2979 RMK AO2 SLP059 T02570007
TAF KEDW 0302/0408 23015G25KT 9999 SKC QNH2975INS 
     BECMG 0304/0305 23009KT 9999 SKC QNH2978INS 
     BECMG 0308/0309 VRB06KT 9999 SKC QNH2981INS 
     BECMG 0319/0320 24012G18KT 9999 SKC QNH2974INS 
     BECMG 0322/0323 24015G25KT 9999 SKC 520009 QNH2971INS 
     TEMPO 0323/0402 24025G35KT 530009 
     BECMG 0404/0405 23009KT 9999 SKC QNH2982INS TX36/0323Z TN20/0312Z
       
KVCV 030655Z AUTO 23005KT 10SM CLR 22/07 A2987 RMK AO2
KONT 030653Z 26005KT 10SM CLR 21/17 A2982 RMK AO2 SLP084 T02110167
KONT 030520Z 0306/0412 25005KT P6SM FEW012 
     FM030900 VRB03KT 5SM BR BKN010 
     FM031600 VRB04KT 5SM HZ FEW012 
     FM032000 25011KT P6SM SKC 
     FM040400 VRB05KT P6SM SKC 
     FM040800 VRB03KT 6SM BR BKN013
       
KNID 030656Z AUTO 19014KT 10SM CLR 29/05 A2974 RMK AO2 SLP042 T02940050
TAF AMD KNID 0300/0323 16008G18KT 9999 SKC QNH2971INS 
     BECMG 0303/0305 21006KT 9999 SKC QNH2975INS 
     BECMG 0319/0321 15008G16KT 9999 SKC QNH2971INS 
     BECMG 0321/0323 19012G24KT 9999 SKC QNH2966INS T19/0313Z T38/0323Z AMD 0015
       
KSNA 030653Z AUTO 23003KT 10SM OVC016 23/18 A2981 RMK AO2 SLP094 T02330178 TSNO
KSNA 030520Z 0306/0406 VRB03KT P6SM OVC015 
     FM031700 VRB04KT P6SM SCT017 
     FM031900 23009KT P6SM FEW020 
     FM040100 23006KT P6SM SCT018 
     FM040430 VRB04KT P6SM OVC017
       
KSAN 030651Z 18004KT 10SM OVC017 22/17 A2983 RMK AO2 SLP102 T02220172
KSAN 030520Z 0306/0412 VRB04KT P6SM OVC017 
     FM031700 VRB04KT P6SM SCT019 
     FM031900 27009KT P6SM FEW020 
     FM040100 28006KT P6SM SCT019 
     FM040300 VRB03KT P6SM BKN019
       
KNXP 030656Z AUTO 20007KT 10SM CLR 28/01 A2983 RMK AO2 SLP058 T02830011
TAF KNXP 0303/0403 VRB05KT 9999 SKC QNH2976INS 
     TEMPO 0303/0308 12011G17KT 
     BECMG 0320/0322 21015G23KT 9999 SKC QNH2976INS AUTOMATED SENSOR METWATCH 0303 TIL 0315 T25/0312Z T40/0322Z
       
KPSP 030653Z AUTO 20003KT 10SM CLR 31/06 A2968 RMK AO2 SLP046 T03060061 TSNO $
KPSP 030520Z 0306/0406 33011KT P6SM SKC 
     FM030700 VRB04KT P6SM SKC 
     FM032000 10008KT P6SM SKC 
     FM040000 33014G22KT P6SM SKC
       
KLAX 030653Z 00000KT 10SM BKN011 20/17 A2982 RMK AO2 SLP094 T02000172
KLAX 030532Z 0306/0412 25006KT P6SM OVC010 
     FM031800 26008KT P6SM BKN015 
     FM040700 VRB03KT P6SM OVC012
       
KCNO 030653Z 23004KT 8SM CLR 19/17 A2983 RMK AO2 SLP096 T01940172
KSMO 030651Z 21004KT 10SM OVC008 20/17 A2982 RMK AO2 SLP095 T02000167
KLGB 030653Z AUTO 00000KT 10SM OVC016 21/18 A2981 RMK AO2 SLP094 T02110183 TSNO
KLGB 030603Z 0306/0406 VRB03KT P6SM BKN012 
     FM032000 20008KT P6SM SKC 
     FM040000 30008KT P6SM SKC 
     FM040500 VRB03KT P6SM SKC
       
KVNY 030651Z AUTO 12005KT 10SM CLR 21/16 A2981 RMK AO2 SLP086 T02060161
KVNY 030532Z 0306/0406 VRB03KT P6SM SKC 
     FM031000 VRB03KT P6SM OVC008 
     FM031300 VRB03KT 4SM BR OVC004 
     FM031500 VRB03KT 6SM HZ OVC008 
     FM031900 16008KT P6SM SKC 
     FM040300 VRB03KT P6SM SKC
       
KBUR 030653Z 00000KT 7SM CLR 20/17 A2981 RMK AO2 SLP082 T02000167
KBUR 030532Z 0306/0406 VRB03KT P6SM SKC 
     FM030900 VRB03KT P6SM OVC008 
     FM031300 VRB03KT 4SM BR OVC004 
     FM031500 VRB03KT 6SM HZ OVC008 
     FM031900 18008KT P6SM SKC 
     FM040400 VRB03KT P6SM SKC
       
KBFL 030654Z AUTO 35008KT 10SM CLR 28/08 A2972 RMK AO2 SLP057 T02830078
KBFL 030525Z 0306/0406 34007KT P6SM SKC 
     FM030900 VRB04KT P6SM SKC 
     FM031900 29008KT P6SM SKC
       
KPMD 030653Z AUTO 20011KT 10SM CLR 25/02 A2984 RMK AO2 SLP071 T02500017
KPMD 030532Z 0306/0406 30008KT P6SM SKC 
     FM031200 VRB03KT P6SM SKC 
     FM032000 24015KT P6SM SKC 
     FM040200 24010KT P6SM SKC
       
KOXR 030651Z AUTO 00000KT 7SM OVC007 19/17 A2980 RMK AO2 SLP089 T01890167
KOXR 030532Z 0306/0406 VRB03KT P6SM OVC007 
     FM031200 VRB03KT 4SM BR OVC004 
     FM031800 27006KT 6SM HZ OVC008 
     FM032100 27010KT P6SM BKN012 
     FM040200 27008KT P6SM OVC008
       
KWJF 030656Z AUTO 23012KT 10SM CLR 25/01 A2982 RMK AO2 SLP074 T02500006 $
KWJF 030532Z 0306/0406 24015KT P6SM SKC 
     FM030800 26010KT P6SM SKC 
     FM031500 26006KT P6SM SKC 
     FM032100 24015G25KT P6SM SKC 
     FM040200 24015KT P6SM SKC
       
KCMA 030655Z 00000KT 9SM CLR 21/16 A2979 RMK AO2 SLP096 T02060161 $
KFAT 030653Z 31010KT 10SM CLR 26/12 A2971 RMK AO2 SLP057 T02610122
KFAT 030525Z 0306/0406 32007KT P6SM SKC 
     FM031000 VRB04KT P6SM SKC 
     FM032200 31008KT P6SM SKC
       
KEED 030656Z AUTO 19005KT 10SM CLR 33/03 A2967 RMK AO2 SLP008 T03280028
KEED 030520Z 0306/0406 24008KT P6SM SKC 
     FM031200 VRB05KT P6SM SKC 
     FM031900 20013KT P6SM SKC 
     FM040400 24008KT P6SM SKC
       
KLSV 030658Z AUTO 22010KT 10SM CLR 30/04 A2971 RMK AO2 SLP033 T03020040 $
TAF AMD KLSV 0302/0407 14012G18KT 9999 SKC 510009 QNH2963INS 
     TEMPO 0302/0305 16020G30KT 520009 
     BECMG 0304/0305 18009KT 9999 SKC QNH2964INS 
     BECMG 0320/0321 18012G18KT 9999 SKC QNH2972INS 
     BECMG 0402/0403 18009KT 9999 SKC QNH2975INS TX40/0400Z TN24/0313Z AMD 030253
       
KLAS 030656Z 20010KT 10SM CLR 32/01 A2971 RMK AO2 SLP027 T03220011 $
KLAS 030520Z 0306/0406 20011KT P6SM SKC 
     FM031600 VRB05KT P6SM SKC 
     FM032000 20012G20KT P6SM SKC 
     FM040300 20011KT P6SM SKC
       
KHII 030635Z AUTO 00000KT 10SM CLR 34/04 A2967 RMK AO2
KIFP 030655Z AUTO 00000KT 10SM CLR 33/05 A2966 RMK AO2 PWINO